createdAt,value
2019-03-11T00:02:02.523Z,1.60
2019-03-11T00:04:32.523Z,1.40
2019-03-11T00:07:02.556Z,1.82
2019-03-11T00:09:32.545Z,1.52
2019-03-11T00:12:02.533Z,1.37
2019-03-11T00:14:32.469Z,1.75
2019-03-11T00:17:02.469Z,1.62
2019-03-11T00:19:32.681Z,2.02
2019-03-11T00:22:02.678Z,2.10
2019-03-11T00:24:32.716Z,1.62
2019-03-11T00:27:02.912Z,1.65
2019-03-11T00:29:33.068Z,1.65
2019-03-11T00:32:03.216Z,1.50
2019-03-11T00:34:33.319Z,1.40
2019-03-11T00:37:03.279Z,1.40
2019-03-11T00:39:33.267Z,0.90
2019-03-11T00:42:03.381Z,1.20
2019-03-11T00:44:33.404Z,1.10
2019-03-11T00:47:03.350Z,1.00
2019-03-11T00:49:33.357Z,0.93
2019-03-11T00:52:03.349Z,1.50
2019-03-11T00:54:33.636Z,0.82
2019-03-11T00:57:03.708Z,1.12
2019-03-11T00:59:33.776Z,1.22
2019-03-11T01:02:04.014Z,1.05
2019-03-11T01:04:34.865Z,1.25
2019-03-11T01:07:05.806Z,0.82
2019-03-11T01:09:35.817Z,1.07
2019-03-11T01:12:05.719Z,0.90
2019-03-11T01:14:35.994Z,0.88
2019-03-11T01:17:06.043Z,0.80
2019-03-11T01:19:36.028Z,1.10
2019-03-11T01:22:06.114Z,0.78
2019-03-11T01:24:37.287Z,0.50
2019-03-11T01:27:07.310Z,3.30
2019-03-11T01:29:37.242Z,1.40
2019-03-11T01:32:07.663Z,0.30
2019-03-11T01:34:37.601Z,0.20
2019-03-11T01:37:07.625Z,0.20
2019-03-11T01:39:37.786Z,0.15
2019-03-11T01:42:07.783Z,0.60
2019-03-11T01:44:37.689Z,0.20
2019-03-11T01:47:07.794Z,0.40
2019-03-11T01:49:37.734Z,0.28
2019-03-11T01:52:07.733Z,0.40
2019-03-11T01:54:37.769Z,0.25
2019-03-11T01:57:07.987Z,0.65
2019-03-11T01:59:37.897Z,0.50
2019-03-11T02:02:07.957Z,0.55
2019-03-11T02:04:38.735Z,0.47
2019-03-11T02:07:08.645Z,0.82
2019-03-11T02:09:38.564Z,0.50
2019-03-11T02:12:08.634Z,0.55
2019-03-11T02:14:38.599Z,0.82
2019-03-11T02:17:08.521Z,1.22
2019-03-11T02:19:38.503Z,1.05
2019-03-11T02:22:08.582Z,0.70
2019-03-11T02:24:38.500Z,0.90
2019-03-11T02:27:08.513Z,1.20
2019-03-11T02:29:38.582Z,1.15
2019-03-11T02:32:08.977Z,1.02
2019-03-11T02:34:39.322Z,1.07
2019-03-11T02:37:09.246Z,0.95
2019-03-11T02:39:39.540Z,0.60
2019-03-11T02:42:09.522Z,0.75
2019-03-11T02:44:39.577Z,0.60
2019-03-11T02:47:09.661Z,0.47
2019-03-11T02:49:43.713Z,0.53
2019-03-11T02:52:12.287Z,0.60
2019-03-11T02:54:42.290Z,0.70
2019-03-11T02:57:12.325Z,0.62
2019-03-11T02:59:42.451Z,0.70
2019-03-11T03:02:14.095Z,1.00
2019-03-11T03:04:49.481Z,1.52
2019-03-11T03:07:19.495Z,1.55
2019-03-11T03:09:49.557Z,1.00
2019-03-11T03:12:19.571Z,0.90
2019-03-11T03:14:50.703Z,0.85
2019-03-11T03:17:20.683Z,1.12
2019-03-11T03:19:50.668Z,1.10
2019-03-11T03:22:20.719Z,1.27
2019-03-11T03:24:50.726Z,1.55
2019-03-11T03:27:20.923Z,1.40
2019-03-11T03:29:50.864Z,1.80
2019-03-11T03:32:21.053Z,2.00
2019-03-11T03:34:51.136Z,2.05
2019-03-11T03:37:21.213Z,1.75
2019-03-11T03:39:51.216Z,2.35
2019-03-11T03:42:21.248Z,2.40
2019-03-11T03:45:28.462Z,2.50
2019-03-11T03:47:59.237Z,2.72
2019-03-11T03:50:34.676Z,2.87
2019-03-11T03:53:04.844Z,2.83
2019-03-11T03:55:34.869Z,2.62
2019-03-11T03:58:04.857Z,2.12
2019-03-11T04:00:35.037Z,2.40
2019-03-11T04:03:06.306Z,2.62
2019-03-11T04:05:37.146Z,2.47
2019-03-11T04:08:07.145Z,2.60
2019-03-11T04:10:37.129Z,2.47
2019-03-11T04:13:07.389Z,2.70
2019-03-11T04:15:37.515Z,3.05
2019-03-11T04:18:09.515Z,3.65
2019-03-11T04:20:39.552Z,3.17
2019-03-11T04:23:09.543Z,3.47
2019-03-11T04:25:39.548Z,3.55
2019-03-11T04:28:09.550Z,3.50
2019-03-11T04:30:39.555Z,3.77
2019-03-11T04:33:09.514Z,3.30
2019-03-11T04:35:39.477Z,3.25
2019-03-11T04:38:09.427Z,3.25
2019-03-11T04:40:39.345Z,3.98
2019-03-11T04:43:09.340Z,5.72
2019-03-11T04:45:39.442Z,6.00
2019-03-11T04:48:09.375Z,5.25
2019-03-11T04:50:39.765Z,6.12
2019-03-11T04:53:09.894Z,6.10
2019-03-11T04:55:39.818Z,6.08
2019-03-11T04:58:09.842Z,4.97
2019-03-11T05:00:39.846Z,6.53
2019-03-11T05:03:09.889Z,6.20
2019-03-11T05:05:39.791Z,5.55
2019-03-11T05:08:10.677Z,5.42
2019-03-11T05:10:40.630Z,5.25
2019-03-11T05:13:10.549Z,4.90
2019-03-11T05:15:40.586Z,4.08
2019-03-11T05:18:10.532Z,3.55
2019-03-11T05:20:40.516Z,3.30
2019-03-11T05:23:10.567Z,3.70
2019-03-11T05:25:40.568Z,3.92
2019-03-11T05:28:10.480Z,4.08
2019-03-11T05:30:42.116Z,3.65
2019-03-11T05:33:12.342Z,3.30
2019-03-11T05:35:42.275Z,3.72
2019-03-11T05:38:12.567Z,3.52
2019-03-11T05:40:42.494Z,3.33
2019-03-11T05:43:12.543Z,4.50
2019-03-11T05:45:42.476Z,4.62
2019-03-11T05:48:12.389Z,4.58
2019-03-11T05:50:42.498Z,4.08
2019-03-11T05:53:12.530Z,4.42
2019-03-11T05:55:42.571Z,4.47
2019-03-11T05:58:12.254Z,4.72
2019-03-11T06:00:42.087Z,4.28
2019-03-11T06:03:12.520Z,4.72
2019-03-11T06:05:42.643Z,5.30
2019-03-11T06:08:22.358Z,5.50
2019-03-11T06:10:53.244Z,4.45
2019-03-11T06:13:35.279Z,4.65
2019-03-11T06:15:55.835Z,3.80
2019-03-11T06:18:33.197Z,3.65
2019-03-11T06:21:21.615Z,4.20
2019-03-11T06:23:51.714Z,4.25
2019-03-11T06:26:21.678Z,3.22
2019-03-11T06:28:51.772Z,3.52
2019-03-11T06:31:21.758Z,3.67
2019-03-11T06:33:51.719Z,3.47
2019-03-11T06:36:21.694Z,3.35
2019-03-11T06:38:51.751Z,3.20
2019-03-11T06:41:21.692Z,3.42
2019-03-11T06:43:51.687Z,3.20
2019-03-11T06:46:21.584Z,3.45
2019-03-11T06:48:51.558Z,3.02
2019-03-11T06:51:21.470Z,3.52
2019-03-11T06:53:51.453Z,3.12
2019-03-11T06:56:21.365Z,2.70
2019-03-11T06:58:51.558Z,2.62
2019-03-11T07:01:21.632Z,2.58
2019-03-11T07:03:51.685Z,3.10
2019-03-11T07:06:21.626Z,2.60
2019-03-11T07:08:52.435Z,1.98
2019-03-11T07:11:22.509Z,2.17
2019-03-11T07:13:52.430Z,2.55
2019-03-11T07:16:23.418Z,2.50
2019-03-11T07:18:53.342Z,2.83
2019-03-11T07:21:23.286Z,3.10
2019-03-11T07:23:53.303Z,3.20
2019-03-11T07:26:23.413Z,2.80
2019-03-11T07:28:53.355Z,3.33
2019-03-11T07:31:23.270Z,3.52
2019-03-11T07:33:53.248Z,3.70
2019-03-11T07:36:23.299Z,3.92
2019-03-11T07:38:53.246Z,4.80
2019-03-11T07:41:23.199Z,4.72
2019-03-11T07:43:53.233Z,5.30
2019-03-11T07:46:23.234Z,5.42
2019-03-11T07:48:53.230Z,5.00
2019-03-11T07:51:23.226Z,5.12
2019-03-11T07:53:53.241Z,4.97
2019-03-11T07:56:24.224Z,3.95
2019-03-11T07:58:54.271Z,4.20
2019-03-11T08:01:24.292Z,3.90
2019-03-11T08:03:54.237Z,3.40
2019-03-11T08:06:24.247Z,2.90
2019-03-11T08:08:55.056Z,3.27
2019-03-11T08:11:25.045Z,2.67
2019-03-11T08:13:54.959Z,2.80
2019-03-11T08:16:24.935Z,2.85
2019-03-11T08:18:54.890Z,2.45
2019-03-11T08:21:24.874Z,2.27
2019-03-11T08:23:54.911Z,2.17
2019-03-11T08:26:24.849Z,2.65
2019-03-11T08:28:54.990Z,2.27
2019-03-11T08:31:25.048Z,2.00
2019-03-11T08:33:54.971Z,2.08
2019-03-11T08:36:25.235Z,1.42
2019-03-11T08:38:55.149Z,2.20
2019-03-11T08:41:25.124Z,1.95
2019-03-11T08:43:55.083Z,2.50
2019-03-11T08:46:24.996Z,3.33
2019-03-11T08:48:56.042Z,3.20
2019-03-11T08:51:27.012Z,4.20
2019-03-11T08:53:56.966Z,3.00
2019-03-11T08:56:26.907Z,4.53
2019-03-11T08:58:56.885Z,5.60
2019-03-11T09:01:26.874Z,4.17
2019-03-11T09:03:56.816Z,4.78
2019-03-11T09:06:26.774Z,4.72
2019-03-11T09:08:56.427Z,4.60
2019-03-11T09:11:25.954Z,6.87
2019-03-11T09:13:55.896Z,5.37
2019-03-11T09:16:25.814Z,4.83
2019-03-11T09:18:55.761Z,6.53
2019-03-11T09:21:25.657Z,5.75
2019-03-11T09:23:55.651Z,6.45
2019-03-11T09:26:25.599Z,4.60
2019-03-11T09:28:55.537Z,4.47
2019-03-11T09:31:25.642Z,4.72
2019-03-11T09:33:55.649Z,4.78
2019-03-11T09:36:25.441Z,3.60
2019-03-11T09:38:55.406Z,2.87
2019-03-11T09:41:25.050Z,2.85
2019-03-11T09:43:54.903Z,3.90
2019-03-11T09:46:25.954Z,3.30
2019-03-11T09:48:55.989Z,3.30
2019-03-11T09:51:25.915Z,4.80
2019-03-11T09:53:55.881Z,5.55
2019-03-11T09:56:25.864Z,3.65
2019-03-11T09:58:55.847Z,5.10
2019-03-11T10:01:27.206Z,6.37
2019-03-11T10:03:57.214Z,3.25
2019-03-11T10:06:27.210Z,3.27
2019-03-11T10:08:57.292Z,3.15
2019-03-11T10:11:28.118Z,4.10
2019-03-11T10:13:58.211Z,5.90
2019-03-11T10:16:28.224Z,8.03
2019-03-11T10:18:58.266Z,2.60
2019-03-11T10:21:28.276Z,6.87
2019-03-11T10:23:59.338Z,2.87
2019-03-11T10:26:29.724Z,5.47
2019-03-11T10:28:59.740Z,12.58
2019-03-11T10:31:29.670Z,4.55
2019-03-11T10:33:59.611Z,2.67
2019-03-11T10:36:29.607Z,2.55
2019-03-11T10:38:59.551Z,2.17
2019-03-11T10:41:29.773Z,2.58
2019-03-11T10:43:59.891Z,2.05
2019-03-11T10:46:30.036Z,1.95
2019-03-11T10:49:00.010Z,1.77
2019-03-11T10:51:29.931Z,1.98
2019-03-11T10:53:59.966Z,1.40
2019-03-11T10:56:29.892Z,2.05
2019-03-11T10:58:59.815Z,1.90
2019-03-11T11:01:29.770Z,1.90
2019-03-11T11:03:59.788Z,3.30
2019-03-11T11:06:29.818Z,4.25
2019-03-11T11:08:59.784Z,2.83
2019-03-11T11:11:30.615Z,2.95
2019-03-11T11:14:00.766Z,5.40
2019-03-11T11:16:30.877Z,3.30
2019-03-11T11:19:00.932Z,1.80
2019-03-11T11:21:30.839Z,1.40
2019-03-11T11:24:00.775Z,1.60
2019-03-11T11:26:30.810Z,1.55
2019-03-11T11:29:00.857Z,1.37
2019-03-11T11:31:30.912Z,1.55
2019-03-11T11:34:00.941Z,1.42
2019-03-11T11:36:31.305Z,1.57
2019-03-11T11:39:01.276Z,1.50
2019-03-11T11:41:32.866Z,1.70
2019-03-11T11:44:03.055Z,1.90
2019-03-11T11:46:33.065Z,1.40
2019-03-11T11:49:03.192Z,1.80
2019-03-11T11:51:33.164Z,1.80
2019-03-11T11:54:03.177Z,1.67
2019-03-11T11:56:33.099Z,1.85
2019-03-11T11:59:03.314Z,1.37
2019-03-11T12:01:33.384Z,1.37
2019-03-11T12:04:03.317Z,1.45
2019-03-11T12:06:33.263Z,1.30
2019-03-11T12:09:04.743Z,4.17
2019-03-11T12:11:36.828Z,7.00
2019-03-11T12:14:06.759Z,6.37
2019-03-11T12:16:36.687Z,2.95
2019-03-11T12:19:06.691Z,2.27
2019-03-11T12:21:36.719Z,2.90
2019-03-11T12:24:06.705Z,3.33
2019-03-11T12:26:36.599Z,1.50
2019-03-11T12:29:06.562Z,1.85
2019-03-11T12:31:36.925Z,1.52
2019-03-11T12:34:06.900Z,1.52
2019-03-11T12:36:36.899Z,1.80
2019-03-11T12:39:07.126Z,1.65
2019-03-11T12:41:37.388Z,1.90
2019-03-11T12:44:08.444Z,1.90
2019-03-11T12:46:38.541Z,1.47
2019-03-11T12:49:08.633Z,1.77
2019-03-11T12:51:48.945Z,1.72
2019-03-11T12:54:10.202Z,1.72
2019-03-11T12:56:40.108Z,1.70
2019-03-11T12:59:10.350Z,1.40
2019-03-11T13:01:40.340Z,1.57
2019-03-11T13:04:10.376Z,1.35
2019-03-11T13:06:40.393Z,1.50
2019-03-11T13:09:10.366Z,1.90
2019-03-11T13:11:41.407Z,1.80
2019-03-11T13:14:11.357Z,2.12
2019-03-11T13:16:41.278Z,2.00
2019-03-11T13:19:13.559Z,1.77
2019-03-11T13:21:42.982Z,1.70
2019-03-11T13:24:12.956Z,1.80
2019-03-11T13:26:42.878Z,1.30
2019-03-11T13:29:13.137Z,1.70
2019-03-11T13:31:43.081Z,1.62
2019-03-11T13:34:13.060Z,2.10
2019-03-11T13:36:43.071Z,1.90
2019-03-11T13:39:13.075Z,2.20
2019-03-11T13:41:43.077Z,2.05
2019-03-11T13:44:12.904Z,2.17
2019-03-11T13:46:42.725Z,2.17
2019-03-11T13:49:12.816Z,2.20
2019-03-11T13:51:42.831Z,2.10
2019-03-11T13:54:13.361Z,2.30
2019-03-11T13:56:43.449Z,2.50
2019-03-11T13:59:13.637Z,1.85
2019-03-11T14:01:43.695Z,2.27
2019-03-11T14:04:13.672Z,2.08
2019-03-11T14:06:43.618Z,2.35
2019-03-11T14:09:14.152Z,2.27
2019-03-11T14:11:44.883Z,1.57
2019-03-11T14:14:14.457Z,2.27
2019-03-11T14:16:44.405Z,1.42
2019-03-11T14:19:17.598Z,1.92
2019-03-11T14:21:47.579Z,2.08
2019-03-11T14:24:17.560Z,2.10
2019-03-11T14:26:47.634Z,1.72
2019-03-11T14:29:18.208Z,2.27
2019-03-11T14:31:47.817Z,2.65
2019-03-11T14:34:18.174Z,1.82
2019-03-11T14:36:48.239Z,2.40
2019-03-11T14:39:18.297Z,2.60
2019-03-11T14:41:48.286Z,2.62
2019-03-11T14:44:18.455Z,2.45
2019-03-11T14:46:48.368Z,2.65
2019-03-11T14:49:18.342Z,2.60
2019-03-11T14:51:48.336Z,2.52
2019-03-11T14:54:18.251Z,2.55
2019-03-11T14:56:48.343Z,2.52
2019-03-11T14:59:18.370Z,2.92
2019-03-11T15:01:48.582Z,2.60
2019-03-11T15:04:18.554Z,2.77
2019-03-11T15:06:48.739Z,2.58
2019-03-11T15:09:18.976Z,3.17
2019-03-11T15:11:49.426Z,2.60
2019-03-11T15:14:19.349Z,2.70
2019-03-11T15:16:49.414Z,2.85
2019-03-11T15:19:21.449Z,3.08
2019-03-11T15:21:51.060Z,2.55
2019-03-11T15:24:20.795Z,2.50
2019-03-11T15:26:50.729Z,2.52
2019-03-11T15:29:20.848Z,2.52
2019-03-11T15:31:51.071Z,2.50
2019-03-11T15:34:21.338Z,2.58
2019-03-11T15:36:51.289Z,2.75
2019-03-11T15:39:21.331Z,2.95
2019-03-11T15:41:51.418Z,2.95
2019-03-11T15:44:23.068Z,3.20
2019-03-11T15:46:53.091Z,2.85
2019-03-11T15:49:23.115Z,2.98
2019-03-11T15:51:54.015Z,2.75
2019-03-11T15:54:23.970Z,2.72
2019-03-11T15:56:54.055Z,2.45
2019-03-11T15:59:23.959Z,2.55
2019-03-11T16:01:53.967Z,3.08
2019-03-11T16:04:24.045Z,3.70
2019-03-11T16:06:54.055Z,2.27
2019-03-11T16:09:24.113Z,2.15
2019-03-11T16:11:54.899Z,1.67
2019-03-11T16:14:26.444Z,2.50
2019-03-11T16:16:56.406Z,3.02
2019-03-11T16:19:26.565Z,3.20
2019-03-11T16:21:56.480Z,2.80
2019-03-11T16:24:29.659Z,2.80
2019-03-11T16:27:00.636Z,2.50
2019-03-11T16:29:31.106Z,2.90
2019-03-11T16:32:00.994Z,2.37
2019-03-11T16:34:31.066Z,2.35
2019-03-11T16:37:00.984Z,2.67
2019-03-11T16:39:30.939Z,3.67
2019-03-11T16:42:00.979Z,4.62
2019-03-11T16:44:31.153Z,5.15
2019-03-11T16:47:01.573Z,6.97
2019-03-11T16:49:31.521Z,6.45
2019-03-11T16:52:01.546Z,6.50
2019-03-11T16:54:31.538Z,7.58
2019-03-11T16:57:01.676Z,8.35
2019-03-11T16:59:31.618Z,7.83
2019-03-11T17:02:01.608Z,7.80
2019-03-11T17:04:31.067Z,7.33
2019-03-11T17:07:00.511Z,5.77
2019-03-11T17:09:30.050Z,17.60
2019-03-11T17:12:00.283Z,7.83
2019-03-11T17:14:31.295Z,7.37
2019-03-11T17:17:01.301Z,6.47
2019-03-11T17:19:30.733Z,5.70
2019-03-11T17:22:00.157Z,5.07
2019-03-11T17:24:30.270Z,4.58
2019-03-11T17:26:59.639Z,4.63
2019-03-11T17:29:29.075Z,3.90
2019-03-11T17:31:59.012Z,4.97
2019-03-11T17:34:29.050Z,5.90
2019-03-11T17:36:58.994Z,6.35
2019-03-11T17:39:28.418Z,6.63
2019-03-11T17:41:58.666Z,6.65
2019-03-11T17:44:29.669Z,7.47
2019-03-11T17:46:59.724Z,6.92
2019-03-11T17:49:29.762Z,6.90
2019-03-11T17:51:59.697Z,6.70
2019-03-11T17:54:29.649Z,6.22
2019-03-11T17:56:59.704Z,6.62
2019-03-11T17:59:29.746Z,6.60
2019-03-11T18:01:59.201Z,7.43
2019-03-11T18:04:29.821Z,7.93
2019-03-11T18:07:00.035Z,7.58
2019-03-11T18:09:30.012Z,8.18
2019-03-11T18:12:00.023Z,9.30
2019-03-11T18:14:29.988Z,9.45
2019-03-11T18:17:00.016Z,9.75
2019-03-11T18:19:29.977Z,11.22
2019-03-11T18:22:00.838Z,12.35
2019-03-11T18:24:30.954Z,10.88
2019-03-11T18:27:00.945Z,11.97
2019-03-11T18:29:31.016Z,10.82
2019-03-11T18:32:02.131Z,12.03
2019-03-11T18:34:32.038Z,11.57
2019-03-11T18:37:01.970Z,12.85
2019-03-11T18:39:31.409Z,13.00
2019-03-11T18:42:01.426Z,12.47
2019-03-11T18:44:31.408Z,12.37
2019-03-11T18:47:01.414Z,14.40
2019-03-11T18:49:31.442Z,14.93
2019-03-11T18:52:01.471Z,15.08
2019-03-11T18:54:31.424Z,20.30
2019-03-11T18:57:01.474Z,18.55
2019-03-11T18:59:31.058Z,21.50
2019-03-11T19:02:02.097Z,21.23
2019-03-11T19:04:32.175Z,23.18
2019-03-11T19:07:02.180Z,21.42
2019-03-11T19:09:32.128Z,19.62
2019-03-11T19:12:01.538Z,14.77
2019-03-11T19:14:30.983Z,16.30
2019-03-11T19:17:01.049Z,18.65
2019-03-11T19:19:31.161Z,18.95
2019-03-11T19:22:01.567Z,18.32
2019-03-11T19:24:32.066Z,19.70
2019-03-11T19:27:01.578Z,19.20
2019-03-11T19:29:31.586Z,20.62
2019-03-11T19:32:01.997Z,22.75
2019-03-11T19:34:31.454Z,23.03
2019-03-11T19:37:01.537Z,21.50
2019-03-11T19:39:30.905Z,24.63
2019-03-11T19:42:00.875Z,24.87
2019-03-11T19:44:30.978Z,26.30
2019-03-11T19:47:02.238Z,25.87
2019-03-11T19:49:32.259Z,25.45
2019-03-11T19:52:02.346Z,26.90
2019-03-11T19:54:32.398Z,27.50
2019-03-11T19:57:02.394Z,27.22
2019-03-11T19:59:32.617Z,26.60
2019-03-11T20:02:02.666Z,27.95
2019-03-11T20:04:33.987Z,26.82
2019-03-11T20:07:03.666Z,27.53
2019-03-11T20:09:34.358Z,28.43
2019-03-11T20:12:04.113Z,27.57
2019-03-11T20:14:33.681Z,28.00
2019-03-11T20:17:03.414Z,26.40
2019-03-11T20:19:33.663Z,24.07
2019-03-11T20:22:04.615Z,25.23
2019-03-11T20:24:34.213Z,22.17
2019-03-11T20:27:04.333Z,25.43
2019-03-11T20:29:34.031Z,24.87
2019-03-11T20:32:04.939Z,24.85
2019-03-11T20:34:34.405Z,26.23
2019-03-11T20:37:03.946Z,26.00
2019-03-11T20:39:34.088Z,24.50
2019-03-11T20:42:04.280Z,25.37
2019-03-11T20:44:34.366Z,27.40
2019-03-11T20:47:04.710Z,26.37
2019-03-11T20:49:34.136Z,24.20
2019-03-11T20:52:04.149Z,23.98
2019-03-11T20:54:33.500Z,22.97
2019-03-11T20:57:03.551Z,24.67
2019-03-11T20:59:33.697Z,24.47
2019-03-11T21:02:03.787Z,26.75
2019-03-11T21:04:33.188Z,25.57
2019-03-11T21:07:03.459Z,24.75
2019-03-11T21:09:33.401Z,25.25
2019-03-11T21:12:02.933Z,25.13
2019-03-11T21:14:33.163Z,26.25
2019-03-11T21:17:03.156Z,25.10
2019-03-11T21:19:32.595Z,25.77
2019-03-11T21:22:02.945Z,23.67
2019-03-11T21:24:36.936Z,23.38
2019-03-11T21:27:06.439Z,26.37
2019-03-11T21:29:38.629Z,26.30
2019-03-11T21:32:08.535Z,23.97
2019-03-11T21:34:38.060Z,26.07
2019-03-11T21:37:08.105Z,22.73
2019-03-11T21:39:37.942Z,24.63
2019-03-11T21:42:07.430Z,25.13
2019-03-11T21:44:41.062Z,26.35
2019-03-11T21:47:11.105Z,26.85
2019-03-11T21:49:41.104Z,26.68
2019-03-11T21:52:10.574Z,26.40
2019-03-11T21:54:40.600Z,26.73
2019-03-11T21:57:10.638Z,24.60
2019-03-11T21:59:40.245Z,26.17
2019-03-11T22:02:10.252Z,27.77
2019-03-11T22:04:39.599Z,27.60
2019-03-11T22:07:09.541Z,28.92
2019-03-11T22:09:39.461Z,28.77
2019-03-11T22:12:10.615Z,27.42
2019-03-11T22:14:40.605Z,27.25
2019-03-11T22:17:09.963Z,28.17
2019-03-11T22:19:39.985Z,26.37
2019-03-11T22:22:09.469Z,25.87
2019-03-11T22:24:41.082Z,24.82
2019-03-11T22:27:11.048Z,25.97
2019-03-11T22:29:41.050Z,25.72
2019-03-11T22:32:10.483Z,27.20
2019-03-11T22:34:39.836Z,26.25
2019-03-11T22:37:09.766Z,27.30
2019-03-11T22:39:39.794Z,25.65
2019-03-11T22:42:09.809Z,25.12
2019-03-11T22:44:39.837Z,23.55
2019-03-11T22:47:10.016Z,24.27
2019-03-11T22:49:40.064Z,22.15
2019-03-11T22:52:10.039Z,23.32
2019-03-11T22:54:39.984Z,22.32
2019-03-11T22:57:09.909Z,21.27
2019-03-11T22:59:39.960Z,17.30
2019-03-11T23:02:11.973Z,21.85
2019-03-11T23:04:41.420Z,19.50
2019-03-11T23:07:11.372Z,20.85
2019-03-11T23:09:41.331Z,21.42
2019-03-11T23:12:11.331Z,19.77
2019-03-11T23:14:41.248Z,20.02
2019-03-11T23:17:11.213Z,20.10
2019-03-11T23:19:41.200Z,17.50
2019-03-11T23:22:11.235Z,17.15
2019-03-11T23:24:40.611Z,17.83
2019-03-11T23:27:10.617Z,18.52
2019-03-11T23:29:40.595Z,17.50
2019-03-11T23:32:10.648Z,16.65
2019-03-11T23:34:39.999Z,15.67
2019-03-11T23:37:09.476Z,13.30
2019-03-11T23:39:39.398Z,16.12
2019-03-11T23:42:09.447Z,15.10
2019-03-11T23:44:39.429Z,12.95
2019-03-11T23:47:09.419Z,14.45
2019-03-11T23:49:39.523Z,13.75
2019-03-11T23:52:08.966Z,12.53
2019-03-11T23:54:38.346Z,15.30
2019-03-11T23:57:08.272Z,14.73
2019-03-11T23:59:37.660Z,13.27
